Большой Царын

Карта отелей и гостиниц, располагающихся рядом с аэропортом Большой Царын :

Большой Царын Республика Калмыкия 47° 48' 38.0412" N, 45° 26' 26.9412" E
Большой Царын Республика Калмыкия 47° 48' 38.0412" N, 45° 26' 26.9412" E
Код аэродрома ИКАО
ZE42
Код аэродрома RU
ЗЕ42
Координаты
N47.81057° E045.44082°
Превышение над уровнем моря
10
Основная полоса
06/24
Курс магнитный
059,2/239,2
Длина основной ВПП
1235
Ширина основной ВПП
30
Покрытие основной ВПП
Твёрдое
Освещение ВПП
Нет
Тип: 
Аэродром
Класс аэродрома: 
Принадлежность: 
ГА
Статус: 
Недействующий
Сайт: 
E-mail аэродрома: 
Страна: 
Россия
Регион: 
Республика Калмыкия
Город: 
Дополнительная информация: 

Найти трансфер

С помощью этой формы Вы можете найти трансфер из аэропорта Большой Царын в город, аэропорт или вокзал:

Карта места

Javascript is required to view this map.

Погода в аэропортах:

Авиационная погода в Сочи

Регион: 
Погода METAR: 
URSS 171630Z 08002MPS 6000 -SHRA SCT011 OVC040CB 12/10 Q1021 WS ALL RWY R06/290060 R02/290060 NOSIG RMK R02/06002MPS MT OBSC QFE764
Время наблюдения
2021-04-17T16:30:00Z
Температура C
12.0
Точка росы
10.0
Направление ветра
80
Скорость ветра (узлы)
4
Метео видимость
3.73
Явления погоды
-SHRA
Условия полета
MVFR
Аэропорт подробнее: 

Авиационная погода в Брянске

Регион: 
Погода METAR: 
UUBP 171630Z AUTO 23002MPS 6000 -RA ///007/// ///025/// 06/06 Q1016
Время наблюдения
2021-04-17T16:30:00Z
Температура C
6.0
Точка росы
6.0
Направление ветра
230
Скорость ветра (узлы)
4
Метео видимость
3.73
Явления погоды
-RA
Условия полета
Аэропорт подробнее: 

Авиационная погода в Вадсё

Регион: 
Погода METAR: 
ENVD 171320Z 05008KT 4000 DZ BKN004 01/00 Q1032
Время наблюдения
2021-04-17T13:20:00Z
Температура C
1.0
Точка росы
0.0
Направление ветра
50
Скорость ветра (узлы)
8
Метео видимость
2.49
Явления погоды
DZ
Условия полета
LIFR

Авиационная погода во Владикавказе

Регион: 
Погода METAR: 
URMO 171630Z 19002MPS 160V240 9999 -RA OVC018 11/09 Q1022 R27/290150 NOSIG RMK QFE721/0962
Время наблюдения
2021-04-17T16:30:00Z
Температура C
11.0
Точка росы
9.0
Направление ветра
190
Скорость ветра (узлы)
4
Метео видимость
6.21
Явления погоды
-RA
Условия полета
MVFR
Аэропорт подробнее: